sensor_id;sensor_type;location;lat;lon;timestamp;P1;durP1;ratioP1;P2;durP2;ratioP2
16029;SDS011;34770;49.272;11.070;2023-06-10T00:00:47;6.68;;;6.05;;
16029;SDS011;34770;49.272;11.070;2023-06-10T00:03:13;6.78;;;5.55;;
16029;SDS011;34770;49.272;11.070;2023-06-10T00:05:39;6.22;;;5.63;;
16029;SDS011;34770;49.272;11.070;2023-06-10T00:08:05;7.32;;;6.63;;
16029;SDS011;34770;49.272;11.070;2023-06-10T00:10:38;7.55;;;6.63;;
16029;SDS011;34770;49.272;11.070;2023-06-10T00:13:04;7.30;;;6.60;;
16029;SDS011;34770;49.272;11.070;2023-06-10T00:15:33;9.00;;;6.60;;
16029;SDS011;34770;49.272;11.070;2023-06-10T00:17:59;7.10;;;6.40;;
16029;SDS011;34770;49.272;11.070;2023-06-10T00:20:26;7.13;;;6.40;;
16029;SDS011;34770;49.272;11.070;2023-06-10T00:22:51;6.85;;;5.97;;
16029;SDS011;34770;49.272;11.070;2023-06-10T00:25:17;6.70;;;5.80;;
16029;SDS011;34770;49.272;11.070;2023-06-10T00:27:43;7.47;;;6.60;;
16029;SDS011;34770;49.272;11.070;2023-06-10T00:30:09;7.10;;;6.40;;
16029;SDS011;34770;49.272;11.070;2023-06-10T00:32:35;7.20;;;6.50;;
16029;SDS011;34770;49.272;11.070;2023-06-10T00:35:02;7.22;;;6.53;;
16029;SDS011;34770;49.272;11.070;2023-06-10T00:37:28;8.27;;;6.30;;
16029;SDS011;34770;49.272;11.070;2023-06-10T00:39:54;7.82;;;6.57;;
16029;SDS011;34770;49.272;11.070;2023-06-10T00:42:20;7.65;;;6.95;;
16029;SDS011;34770;49.272;11.070;2023-06-10T00:44:47;10.77;;;7.00;;
16029;SDS011;34770;49.272;11.070;2023-06-10T00:47:13;7.10;;;6.22;;
16029;SDS011;34770;49.272;11.070;2023-06-10T00:49:39;8.07;;;7.38;;
16029;SDS011;34770;49.272;11.070;2023-06-10T00:52:05;7.97;;;7.28;;
16029;SDS011;34770;49.272;11.070;2023-06-10T00:54:32;8.20;;;7.35;;
16029;SDS011;34770;49.272;11.070;2023-06-10T00:56:59;10.35;;;7.45;;
16029;SDS011;34770;49.272;11.070;2023-06-10T00:59:26;8.52;;;7.72;;
16029;SDS011;34770;49.272;11.070;2023-06-10T01:01:53;8.73;;;7.22;;
16029;SDS011;34770;49.272;11.070;2023-06-10T01:04:18;8.65;;;7.72;;
16029;SDS011;34770;49.272;11.070;2023-06-10T01:06:54;7.60;;;6.90;;
16029;SDS011;34770;49.272;11.070;2023-06-10T01:12:33;8.95;;;7.18;;
16029;SDS011;34770;49.272;11.070;2023-06-10T01:15:14;8.13;;;7.28;;
16029;SDS011;34770;49.272;11.070;2023-06-10T01:17:57;8.52;;;6.93;;
16029;SDS011;34770;49.272;11.070;2023-06-10T01:20:28;8.43;;;7.68;;
16029;SDS011;34770;49.272;11.070;2023-06-10T01:22:54;7.75;;;7.05;;
16029;SDS011;34770;49.272;11.070;2023-06-10T01:25:23;8.98;;;7.25;;
16029;SDS011;34770;49.272;11.070;2023-06-10T01:27:58;8.68;;;7.43;;
16029;SDS011;34770;49.272;11.070;2023-06-10T01:30:31;11.52;;;8.02;;
16029;SDS011;34770;49.272;11.070;2023-06-10T01:33:02;8.05;;;7.25;;
16029;SDS011;34770;49.272;11.070;2023-06-10T01:35:31;10.40;;;7.80;;
16029;SDS011;34770;49.272;11.070;2023-06-10T01:37:58;9.77;;;7.22;;
16029;SDS011;34770;49.272;11.070;2023-06-10T01:40:26;7.90;;;7.10;;
16029;SDS011;34770;49.272;11.070;2023-06-10T01:42:53;8.23;;;7.43;;
16029;SDS011;34770;49.272;11.070;2023-06-10T01:45:19;9.25;;;7.72;;
16029;SDS011;34770;49.272;11.070;2023-06-10T01:47:44;11.40;;;7.20;;
16029;SDS011;34770;49.272;11.070;2023-06-10T01:50:10;8.48;;;7.60;;
16029;SDS011;34770;49.272;11.070;2023-06-10T01:52:37;7.63;;;6.85;;
16029;SDS011;34770;49.272;11.070;2023-06-10T01:55:03;8.50;;;7.70;;
16029;SDS011;34770;49.272;11.070;2023-06-10T01:57:29;7.88;;;7.07;;
16029;SDS011;34770;49.272;11.070;2023-06-10T01:59:54;10.57;;;7.80;;
16029;SDS011;34770;49.272;11.070;2023-06-10T02:02:20;8.03;;;7.23;;
16029;SDS011;34770;49.272;11.070;2023-06-10T02:04:47;7.95;;;7.15;;
16029;SDS011;34770;49.272;11.070;2023-06-10T02:07:12;7.63;;;6.82;;
16029;SDS011;34770;49.272;11.070;2023-06-10T02:09:38;11.38;;;7.32;;
16029;SDS011;34770;49.272;11.070;2023-06-10T02:12:03;8.00;;;7.30;;
16029;SDS011;34770;49.272;11.070;2023-06-10T02:14:29;9.27;;;7.15;;
16029;SDS011;34770;49.272;11.070;2023-06-10T02:16:57;8.60;;;7.70;;
16029;SDS011;34770;49.272;11.070;2023-06-10T02:19:23;8.63;;;7.72;;
16029;SDS011;34770;49.272;11.070;2023-06-10T02:21:50;9.15;;;8.20;;
16029;SDS011;34770;49.272;11.070;2023-06-10T02:24:15;8.30;;;7.50;;
16029;SDS011;34770;49.272;11.070;2023-06-10T02:26:41;7.78;;;7.07;;
16029;SDS011;34770;49.272;11.070;2023-06-10T02:29:06;8.50;;;6.82;;
16029;SDS011;34770;49.272;11.070;2023-06-10T02:31:32;8.43;;;7.30;;
16029;SDS011;34770;49.272;11.070;2023-06-10T02:34:00;7.70;;;6.90;;
16029;SDS011;34770;49.272;11.070;2023-06-10T02:36:27;9.45;;;7.60;;
16029;SDS011;34770;49.272;11.070;2023-06-10T02:38:52;8.38;;;7.60;;
16029;SDS011;34770;49.272;11.070;2023-06-10T02:41:18;8.32;;;7.53;;
16029;SDS011;34770;49.272;11.070;2023-06-10T02:43:44;9.88;;;8.50;;
16029;SDS011;34770;49.272;11.070;2023-06-10T02:46:09;9.27;;;8.38;;
16029;SDS011;34770;49.272;11.070;2023-06-10T02:48:45;8.50;;;7.60;;
16029;SDS011;34770;49.272;11.070;2023-06-10T02:51:10;8.13;;;7.32;;
16029;SDS011;34770;49.272;11.070;2023-06-10T02:53:36;8.48;;;7.68;;
16029;SDS011;34770;49.272;11.070;2023-06-10T02:56:01;8.30;;;7.50;;
16029;SDS011;34770;49.272;11.070;2023-06-10T02:58:27;9.27;;;8.05;;
16029;SDS011;34770;49.272;11.070;2023-06-10T03:00:53;8.27;;;7.57;;
16029;SDS011;34770;49.272;11.070;2023-06-10T03:03:18;8.32;;;7.50;;
16029;SDS011;34770;49.272;11.070;2023-06-10T03:05:45;9.25;;;8.15;;
16029;SDS011;34770;49.272;11.070;2023-06-10T03:08:10;8.57;;;7.03;;
16029;SDS011;34770;49.272;11.070;2023-06-10T03:10:36;8.75;;;7.95;;
16029;SDS011;34770;49.272;11.070;2023-06-10T03:13:01;9.02;;;8.13;;
16029;SDS011;34770;49.272;11.070;2023-06-10T03:15:26;10.45;;;7.60;;
16029;SDS011;34770;49.272;11.070;2023-06-10T03:17:54;8.38;;;7.57;;
16029;SDS011;34770;49.272;11.070;2023-06-10T03:20:20;8.90;;;7.70;;
16029;SDS011;34770;49.272;11.070;2023-06-10T03:22:46;8.30;;;7.50;;
16029;SDS011;34770;49.272;11.070;2023-06-10T03:25:12;8.50;;;7.60;;
16029;SDS011;34770;49.272;11.070;2023-06-10T03:27:42;8.77;;;7.88;;
16029;SDS011;34770;49.272;11.070;2023-06-10T03:30:08;8.48;;;7.60;;
16029;SDS011;34770;49.272;11.070;2023-06-10T03:32:34;8.02;;;7.22;;
16029;SDS011;34770;49.272;11.070;2023-06-10T03:35:00;8.35;;;7.55;;
16029;SDS011;34770;49.272;11.070;2023-06-10T03:37:26;8.45;;;7.60;;
16029;SDS011;34770;49.272;11.070;2023-06-10T03:39:51;9.63;;;8.05;;
16029;SDS011;34770;49.272;11.070;2023-06-10T03:42:17;9.45;;;8.55;;
16029;SDS011;34770;49.272;11.070;2023-06-10T03:44:42;9.43;;;7.60;;
16029;SDS011;34770;49.272;11.070;2023-06-10T03:47:08;8.68;;;7.78;;
16029;SDS011;34770;49.272;11.070;2023-06-10T03:49:34;10.00;;;7.75;;
16029;SDS011;34770;49.272;11.070;2023-06-10T03:52:01;10.98;;;7.68;;
16029;SDS011;34770;49.272;11.070;2023-06-10T03:54:27;10.90;;;7.78;;
16029;SDS011;34770;49.272;11.070;2023-06-10T03:56:52;8.40;;;7.13;;
16029;SDS011;34770;49.272;11.070;2023-06-10T03:59:18;10.23;;;7.70;;
16029;SDS011;34770;49.272;11.070;2023-06-10T04:01:43;8.70;;;7.80;;
16029;SDS011;34770;49.272;11.070;2023-06-10T04:04:09;8.63;;;7.72;;
16029;SDS011;34770;49.272;11.070;2023-06-10T04:06:35;7.93;;;7.15;;
16029;SDS011;34770;49.272;11.070;2023-06-10T04:09:02;8.38;;;7.57;;
16029;SDS011;34770;49.272;11.070;2023-06-10T04:11:28;9.00;;;8.13;;
16029;SDS011;34770;49.272;11.070;2023-06-10T04:13:53;8.15;;;7.35;;
16029;SDS011;34770;49.272;11.070;2023-06-10T04:16:19;8.65;;;7.60;;
16029;SDS011;34770;49.272;11.070;2023-06-10T04:21:24;8.95;;;8.02;;
16029;SDS011;34770;49.272;11.070;2023-06-10T04:23:49;9.27;;;8.35;;
16029;SDS011;34770;49.272;11.070;2023-06-10T04:26:16;9.38;;;8.25;;
16029;SDS011;34770;49.272;11.070;2023-06-10T04:28:42;9.23;;;8.25;;
16029;SDS011;34770;49.272;11.070;2023-06-10T04:31:08;11.38;;;8.15;;
16029;SDS011;34770;49.272;11.070;2023-06-10T04:33:35;9.45;;;8.55;;
16029;SDS011;34770;49.272;11.070;2023-06-10T04:36:00;10.73;;;8.55;;
16029;SDS011;34770;49.272;11.070;2023-06-10T04:38:26;9.13;;;8.23;;
16029;SDS011;34770;49.272;11.070;2023-06-10T04:40:52;9.18;;;8.07;;
16029;SDS011;34770;49.272;11.070;2023-06-10T04:43:17;8.85;;;8.05;;
16029;SDS011;34770;49.272;11.070;2023-06-10T04:45:43;8.40;;;7.63;;
16029;SDS011;34770;49.272;11.070;2023-06-10T04:48:10;9.20;;;8.30;;
16029;SDS011;34770;49.272;11.070;2023-06-10T04:50:36;8.60;;;7.78;;
16029;SDS011;34770;49.272;11.070;2023-06-10T04:53:02;9.40;;;8.05;;
16029;SDS011;34770;49.272;11.070;2023-06-10T04:55:27;8.93;;;8.13;;
16029;SDS011;34770;49.272;11.070;2023-06-10T04:57:53;8.05;;;7.25;;
16029;SDS011;34770;49.272;11.070;2023-06-10T05:00:18;8.75;;;7.95;;
16029;SDS011;34770;49.272;11.070;2023-06-10T05:02:44;8.88;;;7.97;;
16029;SDS011;34770;49.272;11.070;2023-06-10T05:05:10;9.00;;;8.10;;
16029;SDS011;34770;49.272;11.070;2023-06-10T05:07:36;8.35;;;7.55;;
16029;SDS011;34770;49.272;11.070;2023-06-10T05:10:01;8.23;;;7.20;;
16029;SDS011;34770;49.272;11.070;2023-06-10T05:12:28;9.65;;;8.65;;
16029;SDS011;34770;49.272;11.070;2023-06-10T05:14:53;9.30;;;8.40;;
16029;SDS011;34770;49.272;11.070;2023-06-10T05:17:19;9.43;;;8.50;;
16029;SDS011;34770;49.272;11.070;2023-06-10T05:19:44;11.52;;;8.18;;
16029;SDS011;34770;49.272;11.070;2023-06-10T05:22:10;9.18;;;8.27;;
16029;SDS011;34770;49.272;11.070;2023-06-10T05:24:35;13.05;;;7.47;;
16029;SDS011;34770;49.272;11.070;2023-06-10T05:27:01;8.38;;;7.60;;
16029;SDS011;34770;49.272;11.070;2023-06-10T05:29:27;8.07;;;6.82;;
16029;SDS011;34770;49.272;11.070;2023-06-10T05:31:53;9.18;;;7.50;;
16029;SDS011;34770;49.272;11.070;2023-06-10T05:34:21;8.88;;;7.97;;
16029;SDS011;34770;49.272;11.070;2023-06-10T05:36:46;9.32;;;7.22;;
16029;SDS011;34770;49.272;11.070;2023-06-10T05:39:12;11.23;;;8.18;;
16029;SDS011;34770;49.272;11.070;2023-06-10T05:41:38;8.98;;;8.07;;
16029;SDS011;34770;49.272;11.070;2023-06-10T05:44:03;8.90;;;7.65;;
16029;SDS011;34770;49.272;11.070;2023-06-10T05:46:29;7.03;;;6.32;;
16029;SDS011;34770;49.272;11.070;2023-06-10T05:48:55;7.40;;;6.80;;
16029;SDS011;34770;49.272;11.070;2023-06-10T05:51:20;7.45;;;6.75;;
16029;SDS011;34770;49.272;11.070;2023-06-10T05:53:45;8.30;;;7.57;;
16029;SDS011;34770;49.272;11.070;2023-06-10T05:56:11;7.40;;;6.60;;
16029;SDS011;34770;49.272;11.070;2023-06-10T05:58:38;8.50;;;7.60;;
16029;SDS011;34770;49.272;11.070;2023-06-10T06:01:03;10.70;;;7.50;;
16029;SDS011;34770;49.272;11.070;2023-06-10T06:03:29;9.35;;;7.70;;
16029;SDS011;34770;49.272;11.070;2023-06-10T06:05:54;8.18;;;7.35;;
16029;SDS011;34770;49.272;11.070;2023-06-10T06:08:20;6.95;;;6.25;;
16029;SDS011;34770;49.272;11.070;2023-06-10T06:10:45;8.05;;;7.20;;
16029;SDS011;34770;49.272;11.070;2023-06-10T06:13:13;7.75;;;6.22;;
16029;SDS011;34770;49.272;11.070;2023-06-10T06:15:38;7.65;;;6.95;;
16029;SDS011;34770;49.272;11.070;2023-06-10T06:18:05;8.25;;;6.97;;
16029;SDS011;34770;49.272;11.070;2023-06-10T06:20:30;6.68;;;6.07;;
16029;SDS011;34770;49.272;11.070;2023-06-10T06:22:56;8.05;;;7.25;;
16029;SDS011;34770;49.272;11.070;2023-06-10T06:25:21;8.35;;;7.10;;
16029;SDS011;34770;49.272;11.070;2023-06-10T06:27:48;9.05;;;8.23;;
16029;SDS011;34770;49.272;11.070;2023-06-10T06:30:13;8.50;;;7.63;;
16029;SDS011;34770;49.272;11.070;2023-06-10T06:32:39;9.15;;;7.57;;
16029;SDS011;34770;49.272;11.070;2023-06-10T06:35:04;10.50;;;7.65;;
16029;SDS011;34770;49.272;11.070;2023-06-10T06:37:33;8.77;;;7.15;;
16029;SDS011;34770;49.272;11.070;2023-06-10T06:39:59;7.93;;;7.13;;
16029;SDS011;34770;49.272;11.070;2023-06-10T06:42:25;8.88;;;6.97;;
16029;SDS011;34770;49.272;11.070;2023-06-10T06:44:50;8.18;;;5.85;;
16029;SDS011;34770;49.272;11.070;2023-06-10T06:47:16;6.80;;;6.20;;
16029;SDS011;34770;49.272;11.070;2023-06-10T06:49:47;6.70;;;6.10;;
16029;SDS011;34770;49.272;11.070;2023-06-10T06:52:13;6.65;;;5.78;;
16029;SDS011;34770;49.272;11.070;2023-06-10T06:54:39;6.68;;;5.97;;
16029;SDS011;34770;49.272;11.070;2023-06-10T06:57:05;9.25;;;7.88;;
16029;SDS011;34770;49.272;11.070;2023-06-10T06:59:32;8.40;;;6.47;;
16029;SDS011;34770;49.272;11.070;2023-06-10T07:01:58;6.60;;;6.00;;
16029;SDS011;34770;49.272;11.070;2023-06-10T07:04:23;6.47;;;5.55;;
16029;SDS011;34770;49.272;11.070;2023-06-10T07:06:49;7.28;;;6.28;;
16029;SDS011;34770;49.272;11.070;2023-06-10T07:09:14;7.00;;;6.25;;
16029;SDS011;34770;49.272;11.070;2023-06-10T07:11:40;7.13;;;6.00;;
16029;SDS011;34770;49.272;11.070;2023-06-10T07:14:06;6.72;;;6.05;;
16029;SDS011;34770;49.272;11.070;2023-06-10T07:16:32;6.50;;;5.80;;
16029;SDS011;34770;49.272;11.070;2023-06-10T07:18:57;6.53;;;5.93;;
16029;SDS011;34770;49.272;11.070;2023-06-10T07:21:23;6.35;;;5.75;;
16029;SDS011;34770;49.272;11.070;2023-06-10T07:23:48;7.70;;;6.90;;
16029;SDS011;34770;49.272;11.070;2023-06-10T07:26:17;8.88;;;6.32;;
16029;SDS011;34770;49.272;11.070;2023-06-10T07:28:43;6.90;;;6.20;;
16029;SDS011;34770;49.272;11.070;2023-06-10T07:31:08;7.00;;;5.75;;
16029;SDS011;34770;49.272;11.070;2023-06-10T07:33:34;6.43;;;5.70;;
16029;SDS011;34770;49.272;11.070;2023-06-10T07:36:00;6.25;;;5.65;;
16029;SDS011;34770;49.272;11.070;2023-06-10T07:38:25;7.07;;;5.75;;
16029;SDS011;34770;49.272;11.070;2023-06-10T07:40:51;7.63;;;6.80;;
16029;SDS011;34770;49.272;11.070;2023-06-10T07:43:17;6.97;;;6.28;;
16029;SDS011;34770;49.272;11.070;2023-06-10T07:45:42;6.38;;;5.78;;
16029;SDS011;34770;49.272;11.070;2023-06-10T07:48:08;10.07;;;6.03;;
16029;SDS011;34770;49.272;11.070;2023-06-10T07:50:34;7.15;;;5.93;;
16029;SDS011;34770;49.272;11.070;2023-06-10T07:52:59;5.63;;;5.13;;
16029;SDS011;34770;49.272;11.070;2023-06-10T07:55:25;7.00;;;6.30;;
16029;SDS011;34770;49.272;11.070;2023-06-10T07:57:51;6.05;;;5.47;;
16029;SDS011;34770;49.272;11.070;2023-06-10T08:00:17;6.78;;;6.18;;
16029;SDS011;34770;49.272;11.070;2023-06-10T08:02:43;6.28;;;5.63;;
16029;SDS011;34770;49.272;11.070;2023-06-10T08:05:09;6.95;;;6.25;;
16029;SDS011;34770;49.272;11.070;2023-06-10T08:07:35;6.95;;;6.25;;
16029;SDS011;34770;49.272;11.070;2023-06-10T08:10:00;6.45;;;5.85;;
16029;SDS011;34770;49.272;11.070;2023-06-10T08:12:27;6.57;;;5.90;;
16029;SDS011;34770;49.272;11.070;2023-06-10T08:14:53;6.22;;;5.63;;
16029;SDS011;34770;49.272;11.070;2023-06-10T08:17:20;5.97;;;5.40;;
16029;SDS011;34770;49.272;11.070;2023-06-10T08:19:45;6.20;;;5.60;;
16029;SDS011;34770;49.272;11.070;2023-06-10T08:22:11;5.30;;;4.88;;
16029;SDS011;34770;49.272;11.070;2023-06-10T08:24:37;6.03;;;5.53;;
16029;SDS011;34770;49.272;11.070;2023-06-10T08:27:02;6.53;;;4.72;;
16029;SDS011;34770;49.272;11.070;2023-06-10T08:29:28;4.88;;;4.47;;
16029;SDS011;34770;49.272;11.070;2023-06-10T08:31:56;5.18;;;4.38;;
16029;SDS011;34770;49.272;11.070;2023-06-10T08:34:22;5.07;;;4.13;;
16029;SDS011;34770;49.272;11.070;2023-06-10T08:36:47;5.18;;;4.68;;
16029;SDS011;34770;49.272;11.070;2023-06-10T08:39:18;6.70;;;4.35;;
16029;SDS011;34770;49.272;11.070;2023-06-10T08:41:43;4.65;;;4.25;;
16029;SDS011;34770;49.272;11.070;2023-06-10T08:44:25;5.13;;;4.53;;
16029;SDS011;34770;49.272;11.070;2023-06-10T08:46:55;5.43;;;4.32;;
16029;SDS011;34770;49.272;11.070;2023-06-10T08:49:23;4.65;;;3.80;;
16029;SDS011;34770;49.272;11.070;2023-06-10T08:51:53;4.85;;;4.00;;
16029;SDS011;34770;49.272;11.070;2023-06-10T08:54:22;3.88;;;3.58;;
16029;SDS011;34770;49.272;11.070;2023-06-10T08:56:52;4.90;;;4.00;;
16029;SDS011;34770;49.272;11.070;2023-06-10T08:59:20;4.47;;;4.03;;
16029;SDS011;34770;49.272;11.070;2023-06-10T09:01:47;5.63;;;3.83;;
16029;SDS011;34770;49.272;11.070;2023-06-10T09:04:13;4.22;;;3.83;;
16029;SDS011;34770;49.272;11.070;2023-06-10T09:06:38;4.22;;;3.67;;
16029;SDS011;34770;49.272;11.070;2023-06-10T09:09:05;4.65;;;4.25;;
16029;SDS011;34770;49.272;11.070;2023-06-10T09:11:32;4.63;;;4.22;;
16029;SDS011;34770;49.272;11.070;2023-06-10T09:13:57;4.35;;;3.67;;
16029;SDS011;34770;49.272;11.070;2023-06-10T09:16:26;3.80;;;3.50;;
16029;SDS011;34770;49.272;11.070;2023-06-10T09:18:51;5.30;;;3.40;;
16029;SDS011;34770;49.272;11.070;2023-06-10T09:21:23;4.13;;;3.72;;
16029;SDS011;34770;49.272;11.070;2023-06-10T09:23:50;4.15;;;3.50;;
16029;SDS011;34770;49.272;11.070;2023-06-10T09:26:16;4.00;;;3.40;;
16029;SDS011;34770;49.272;11.070;2023-06-10T09:28:48;3.88;;;3.58;;
16029;SDS011;34770;49.272;11.070;2023-06-10T09:31:15;3.55;;;3.25;;
16029;SDS011;34770;49.272;11.070;2023-06-10T09:33:43;4.22;;;3.60;;
16029;SDS011;34770;49.272;11.070;2023-06-10T09:36:10;4.07;;;3.67;;
16029;SDS011;34770;49.272;11.070;2023-06-10T09:38:36;4.05;;;3.72;;
16029;SDS011;34770;49.272;11.070;2023-06-10T09:41:02;3.72;;;3.42;;
16029;SDS011;34770;49.272;11.070;2023-06-10T09:43:41;3.80;;;3.50;;
16029;SDS011;34770;49.272;11.070;2023-06-10T09:46:18;3.80;;;3.38;;
16029;SDS011;34770;49.272;11.070;2023-06-10T09:48:45;3.85;;;3.55;;
16029;SDS011;34770;49.272;11.070;2023-06-10T09:51:13;4.32;;;3.80;;
16029;SDS011;34770;49.272;11.070;2023-06-10T09:53:39;5.10;;;3.20;;
16029;SDS011;34770;49.272;11.070;2023-06-10T09:56:04;5.40;;;3.75;;
16029;SDS011;34770;49.272;11.070;2023-06-10T09:58:37;4.70;;;4.10;;
16029;SDS011;34770;49.272;11.070;2023-06-10T10:01:04;5.28;;;3.90;;
16029;SDS011;34770;49.272;11.070;2023-06-10T10:03:33;4.53;;;4.13;;
16029;SDS011;34770;49.272;11.070;2023-06-10T10:06:07;4.35;;;3.95;;
16029;SDS011;34770;49.272;11.070;2023-06-10T10:08:34;4.32;;;4.03;;
16029;SDS011;34770;49.272;11.070;2023-06-10T10:10:59;4.38;;;3.97;;
16029;SDS011;34770;49.272;11.070;2023-06-10T10:13:26;5.30;;;3.90;;
16029;SDS011;34770;49.272;11.070;2023-06-10T10:15:53;5.07;;;3.75;;
16029;SDS011;34770;49.272;11.070;2023-06-10T10:18:22;5.38;;;4.15;;
16029;SDS011;34770;49.272;11.070;2023-06-10T10:20:55;4.28;;;3.88;;
16029;SDS011;34770;49.272;11.070;2023-06-10T10:23:24;4.55;;;4.15;;
16029;SDS011;34770;49.272;11.070;2023-06-10T10:25:56;4.75;;;4.22;;
16029;SDS011;34770;49.272;11.070;2023-06-10T10:28:28;4.05;;;3.75;;
16029;SDS011;34770;49.272;11.070;2023-06-10T10:31:07;4.53;;;3.97;;
16029;SDS011;34770;49.272;11.070;2023-06-10T10:33:42;4.32;;;3.92;;
16029;SDS011;34770;49.272;11.070;2023-06-10T10:36:09;4.43;;;4.00;;
16029;SDS011;34770;49.272;11.070;2023-06-10T10:38:35;4.40;;;4.10;;
16029;SDS011;34770;49.272;11.070;2023-06-10T10:41:01;4.22;;;3.83;;
16029;SDS011;34770;49.272;11.070;2023-06-10T10:43:27;5.28;;;4.07;;
16029;SDS011;34770;49.272;11.070;2023-06-10T10:46:08;4.85;;;4.45;;
16029;SDS011;34770;49.272;11.070;2023-06-10T10:48:38;4.60;;;4.20;;
16029;SDS011;34770;49.272;11.070;2023-06-10T10:51:06;4.72;;;4.32;;
16029;SDS011;34770;49.272;11.070;2023-06-10T10:53:32;4.53;;;4.15;;
16029;SDS011;34770;49.272;11.070;2023-06-10T10:56:04;4.80;;;4.40;;
16029;SDS011;34770;49.272;11.070;2023-06-10T10:58:37;4.65;;;4.22;;
16029;SDS011;34770;49.272;11.070;2023-06-10T11:01:13;5.00;;;4.35;;
16029;SDS011;34770;49.272;11.070;2023-06-10T11:03:46;5.18;;;4.63;;
16029;SDS011;34770;49.272;11.070;2023-06-10T11:06:14;5.40;;;5.00;;
16029;SDS011;34770;49.272;11.070;2023-06-10T11:11:22;6.28;;;5.32;;
16029;SDS011;34770;49.272;11.070;2023-06-10T11:16:37;4.88;;;4.47;;
16029;SDS011;34770;49.272;11.070;2023-06-10T11:19:07;7.53;;;4.15;;
16029;SDS011;34770;49.272;11.070;2023-06-10T11:21:37;5.30;;;4.15;;
16029;SDS011;34770;49.272;11.070;2023-06-10T11:24:21;5.03;;;4.63;;
16029;SDS011;34770;49.272;11.070;2023-06-10T11:26:46;5.30;;;4.78;;
16029;SDS011;34770;49.272;11.070;2023-06-10T11:29:11;4.97;;;4.53;;
16029;SDS011;34770;49.272;11.070;2023-06-10T11:31:41;4.78;;;4.38;;
16029;SDS011;34770;49.272;11.070;2023-06-10T11:34:09;4.38;;;4.07;;
16029;SDS011;34770;49.272;11.070;2023-06-10T11:36:38;4.88;;;4.38;;
16029;SDS011;34770;49.272;11.070;2023-06-10T11:39:07;5.57;;;4.32;;
16029;SDS011;34770;49.272;11.070;2023-06-10T11:41:33;5.20;;;4.80;;
16029;SDS011;34770;49.272;11.070;2023-06-10T11:44:04;4.68;;;4.28;;
16029;SDS011;34770;49.272;11.070;2023-06-10T11:46:33;4.65;;;4.25;;
16029;SDS011;34770;49.272;11.070;2023-06-10T11:48:59;4.47;;;4.18;;
16029;SDS011;34770;49.272;11.070;2023-06-10T11:51:26;5.72;;;4.68;;
16029;SDS011;34770;49.272;11.070;2023-06-10T11:54:04;4.28;;;3.97;;
16029;SDS011;34770;49.272;11.070;2023-06-10T11:56:30;4.07;;;3.78;;
16029;SDS011;34770;49.272;11.070;2023-06-10T12:01:43;4.13;;;3.63;;
16029;SDS011;34770;49.272;11.070;2023-06-10T12:04:11;4.03;;;3.60;;
16029;SDS011;34770;49.272;11.070;2023-06-10T12:06:41;4.40;;;4.00;;
16029;SDS011;34770;49.272;11.070;2023-06-10T12:09:22;4.53;;;4.15;;
16029;SDS011;34770;49.272;11.070;2023-06-10T12:11:54;4.88;;;4.20;;
16029;SDS011;34770;49.272;11.070;2023-06-10T12:17:23;3.97;;;3.67;;
16029;SDS011;34770;49.272;11.070;2023-06-10T12:20:05;4.10;;;3.72;;
16029;SDS011;34770;49.272;11.070;2023-06-10T12:22:35;4.55;;;3.47;;
16029;SDS011;34770;49.272;11.070;2023-06-10T12:25:05;3.47;;;3.17;;
16029;SDS011;34770;49.272;11.070;2023-06-10T12:27:32;3.22;;;2.92;;
16029;SDS011;34770;49.272;11.070;2023-06-10T12:29:59;3.25;;;2.90;;
16029;SDS011;34770;49.272;11.070;2023-06-10T12:32:39;3.42;;;3.13;;
16029;SDS011;34770;49.272;11.070;2023-06-10T12:35:06;3.25;;;3.00;;
16029;SDS011;34770;49.272;11.070;2023-06-10T12:37:32;2.97;;;2.78;;
16029;SDS011;34770;49.272;11.070;2023-06-10T12:40:00;3.30;;;3.00;;
16029;SDS011;34770;49.272;11.070;2023-06-10T12:42:27;3.45;;;3.15;;
16029;SDS011;34770;49.272;11.070;2023-06-10T12:44:54;3.40;;;3.10;;
16029;SDS011;34770;49.272;11.070;2023-06-10T12:47:28;2.92;;;2.72;;
16029;SDS011;34770;49.272;11.070;2023-06-10T12:49:56;3.10;;;2.90;;
16029;SDS011;34770;49.272;11.070;2023-06-10T12:52:23;2.90;;;2.70;;
16029;SDS011;34770;49.272;11.070;2023-06-10T12:54:49;3.38;;;3.10;;
16029;SDS011;34770;49.272;11.070;2023-06-10T12:57:14;3.50;;;2.95;;
16029;SDS011;34770;49.272;11.070;2023-06-10T12:59:40;3.53;;;3.22;;
16029;SDS011;34770;49.272;11.070;2023-06-10T13:02:07;3.47;;;3.17;;
16029;SDS011;34770;49.272;11.070;2023-06-10T13:04:32;3.40;;;3.10;;
16029;SDS011;34770;49.272;11.070;2023-06-10T13:06:58;3.78;;;3.47;;
16029;SDS011;34770;49.272;11.070;2023-06-10T13:09:24;5.30;;;3.25;;
16029;SDS011;34770;49.272;11.070;2023-06-10T13:11:49;3.67;;;3.38;;
16029;SDS011;34770;49.272;11.070;2023-06-10T13:14:15;3.33;;;3.13;;
16029;SDS011;34770;49.272;11.070;2023-06-10T13:16:40;5.15;;;3.92;;
16029;SDS011;34770;49.272;11.070;2023-06-10T13:19:06;6.15;;;3.70;;
16029;SDS011;34770;49.272;11.070;2023-06-10T13:21:32;4.03;;;3.63;;
16029;SDS011;34770;49.272;11.070;2023-06-10T13:23:58;4.70;;;3.42;;
16029;SDS011;34770;49.272;11.070;2023-06-10T13:26:24;3.95;;;3.65;;
16029;SDS011;34770;49.272;11.070;2023-06-10T13:28:49;3.70;;;3.40;;
16029;SDS011;34770;49.272;11.070;2023-06-10T13:31:15;4.57;;;3.75;;
16029;SDS011;34770;49.272;11.070;2023-06-10T13:33:40;4.15;;;3.85;;
16029;SDS011;34770;49.272;11.070;2023-06-10T13:36:08;3.85;;;3.55;;
16029;SDS011;34770;49.272;11.070;2023-06-10T13:38:33;3.97;;;3.67;;
16029;SDS011;34770;49.272;11.070;2023-06-10T13:40:59;4.22;;;3.83;;
16029;SDS011;34770;49.272;11.070;2023-06-10T13:43:24;3.58;;;3.28;;
16029;SDS011;34770;49.272;11.070;2023-06-10T13:45:50;4.00;;;3.70;;
16029;SDS011;34770;49.272;11.070;2023-06-10T13:48:15;4.28;;;3.88;;
16029;SDS011;34770;49.272;11.070;2023-06-10T13:50:41;4.13;;;3.72;;
16029;SDS011;34770;49.272;11.070;2023-06-10T13:53:10;4.18;;;3.78;;
16029;SDS011;34770;49.272;11.070;2023-06-10T13:55:36;3.97;;;3.67;;
16029;SDS011;34770;49.272;11.070;2023-06-10T13:58:02;4.22;;;3.88;;
16029;SDS011;34770;49.272;11.070;2023-06-10T14:00:28;4.72;;;4.18;;
16029;SDS011;34770;49.272;11.070;2023-06-10T14:02:54;3.75;;;3.42;;
16029;SDS011;34770;49.272;11.070;2023-06-10T14:05:19;3.88;;;3.58;;
16029;SDS011;34770;49.272;11.070;2023-06-10T14:07:45;3.90;;;3.60;;
16029;SDS011;34770;49.272;11.070;2023-06-10T14:10:10;4.20;;;3.80;;
16029;SDS011;34770;49.272;11.070;2023-06-10T14:12:36;3.97;;;3.67;;
16029;SDS011;34770;49.272;11.070;2023-06-10T14:15:01;3.70;;;3.40;;
16029;SDS011;34770;49.272;11.070;2023-06-10T14:17:28;4.55;;;4.15;;
16029;SDS011;34770;49.272;11.070;2023-06-10T14:19:53;4.82;;;4.32;;
16029;SDS011;34770;49.272;11.070;2023-06-10T14:22:18;4.15;;;3.75;;
16029;SDS011;34770;49.272;11.070;2023-06-10T14:24:44;4.63;;;3.90;;
16029;SDS011;34770;49.272;11.070;2023-06-10T14:27:09;3.92;;;3.63;;
16029;SDS011;34770;49.272;11.070;2023-06-10T14:29:35;4.30;;;3.92;;
16029;SDS011;34770;49.272;11.070;2023-06-10T14:32:00;4.47;;;4.07;;
16029;SDS011;34770;49.272;11.070;2023-06-10T14:34:26;4.75;;;3.75;;
16029;SDS011;34770;49.272;11.070;2023-06-10T14:36:58;3.97;;;3.63;;
16029;SDS011;34770;49.272;11.070;2023-06-10T14:39:25;4.35;;;4.00;;
16029;SDS011;34770;49.272;11.070;2023-06-10T14:41:50;4.97;;;3.70;;
16029;SDS011;34770;49.272;11.070;2023-06-10T14:44:17;4.10;;;3.70;;
16029;SDS011;34770;49.272;11.070;2023-06-10T14:46:43;3.95;;;3.65;;
16029;SDS011;34770;49.272;11.070;2023-06-10T14:49:09;7.20;;;4.68;;